DAL1094 SLLP-SCFA
Flight info
| Callsign | DAL1094 |
|---|---|
| Flight time | 1h 9m |
| Altitude | 36000 |
| Route | DEVUR UM664 VAGUR UT291 ERISO/N0462F370 UT291 LOBAG UQ803 ENLUS ENLUS5A |
| Aircraft | B738/M-SDE2E3FGHIRWXY/LB1 |
Departure
| Time | 2026-04-23 20:14 |
|---|---|
| Airport | El Alto International Airport (SLLP) |
Arrival
| Time | 2026-04-23 21:23 |
|---|---|
| Airport | Andrés Sabella Gálvez International Airport (SCFA) |
| Time | Latitude | Longitude | Altitude | Speed | Heading |
|---|---|---|---|---|---|
| 2026-04-23 18:57 | -16.50987 | -68.17655 | 13336 ft | 0 kts | 2° |
| 2026-04-23 20:02 | -16.51001 | -68.17655 | 13336 ft | 3 kts | 351° |
| 2026-04-23 20:02 | -16.51023 | -68.17650 | 13336 ft | 2 kts | 356° |
| 2026-04-23 20:02 | -16.51034 | -68.17653 | 13336 ft | 2 kts | 62° |
| 2026-04-23 20:03 | -16.51041 | -68.17670 | 13336 ft | 2 kts | 108° |
| 2026-04-23 20:03 | -16.51035 | -68.17681 | 13336 ft | 2 kts | 123° |
| 2026-04-23 20:03 | -16.51029 | -68.17692 | 13336 ft | 2 kts | 119° |
| 2026-04-23 20:03 | -16.51027 | -68.17696 | 13336 ft | 0 kts | 118° |
| 2026-04-23 20:06 | -16.51025 | -68.17700 | 13335 ft | 2 kts | 117° |
| 2026-04-23 20:06 | -16.51018 | -68.17713 | 13336 ft | 2 kts | 120° |
| 2026-04-23 20:06 | -16.51015 | -68.17718 | 13336 ft | 0 kts | 121° |
| 2026-04-23 20:08 | -16.51019 | -68.17710 | 13335 ft | 2 kts | 119° |
| 2026-04-23 20:08 | -16.51028 | -68.17694 | 13336 ft | 3 kts | 119° |
| 2026-04-23 20:09 | -16.51038 | -68.17674 | 13335 ft | 3 kts | 117° |
| 2026-04-23 20:09 | -16.51050 | -68.17650 | 13336 ft | 4 kts | 118° |
| 2026-04-23 20:09 | -16.51070 | -68.17622 | 13333 ft | 7 kts | 129° |
| 2026-04-23 20:09 | -16.51105 | -68.17579 | 13333 ft | 9 kts | 130° |
| 2026-04-23 20:10 | -16.51133 | -68.17543 | 13332 ft | 10 kts | 129° |
| 2026-04-23 20:10 | -16.51203 | -68.17457 | 13329 ft | 13 kts | 130° |
| 2026-04-23 20:10 | -16.51265 | -68.17387 | 13327 ft | 12 kts | 140° |
| 2026-04-23 20:10 | -16.51291 | -68.17373 | 13325 ft | 0 kts | 157° |
| 2026-04-23 20:11 | -16.51304 | -68.17367 | 13325 ft | 3 kts | 157° |
| 2026-04-23 20:11 | -16.51328 | -68.17363 | 13325 ft | 4 kts | 178° |
| 2026-04-23 20:11 | -16.51375 | -68.17366 | 13327 ft | 7 kts | 190° |
| 2026-04-23 20:12 | -16.51391 | -68.17393 | 13325 ft | 4 kts | 264° |
| 2026-04-23 20:12 | -16.51391 | -68.17406 | 13325 ft | 0 kts | 276° |
| 2026-04-23 20:12 | -16.51391 | -68.17408 | 13325 ft | 0 kts | 275° |
| 2026-04-23 20:13 | -16.51388 | -68.17468 | 13324 ft | 25 kts | 271° |
| 2026-04-23 20:13 | -16.51379 | -68.17792 | 13320 ft | 64 kts | 272° |
| 2026-04-23 20:13 | -16.51360 | -68.18385 | 13301 ft | 99 kts | 272° |
| 2026-04-23 20:14 | -16.51334 | -68.19201 | 13280 ft | 131 kts | 272° |
| 2026-04-23 20:14 | -16.51299 | -68.20315 | 13199 ft | 176 kts | 272° |
| 2026-04-23 20:14 | -16.51252 | -68.21626 | 13577 ft | 181 kts | 272° |
| 2026-04-23 20:14 | -16.51311 | -68.22909 | 14078 ft | 188 kts | 255° |
| 2026-04-23 20:15 | -16.51850 | -68.24198 | 14258 ft | 196 kts | 243° |
| 2026-04-23 20:15 | -16.52569 | -68.25487 | 14347 ft | 210 kts | 240° |
| 2026-04-23 20:15 | -16.53349 | -68.26834 | 14443 ft | 224 kts | 240° |
| 2026-04-23 20:15 | -16.54171 | -68.28267 | 14560 ft | 237 kts | 240° |
| 2026-04-23 20:16 | -16.55021 | -68.29762 | 14599 ft | 247 kts | 240° |
| 2026-04-23 20:16 | -16.55900 | -68.31316 | 14604 ft | 249 kts | 240° |
| 2026-04-23 20:16 | -16.56782 | -68.32881 | 14639 ft | 251 kts | 241° |
| 2026-04-23 20:16 | -16.57665 | -68.34457 | 14649 ft | 253 kts | 238° |
| 2026-04-23 20:17 | -16.58551 | -68.36051 | 14674 ft | 255 kts | 239° |
| 2026-04-23 20:17 | -16.59439 | -68.37654 | 14699 ft | 256 kts | 240° |
| 2026-04-23 20:17 | -16.60329 | -68.39266 | 14726 ft | 257 kts | 240° |
| 2026-04-23 20:17 | -16.61223 | -68.40885 | 14749 ft | 258 kts | 240° |
| 2026-04-23 20:18 | -16.62119 | -68.42503 | 14774 ft | 257 kts | 240° |
| 2026-04-23 20:18 | -16.63013 | -68.44122 | 14806 ft | 258 kts | 240° |
| 2026-04-23 20:18 | -16.63919 | -68.45761 | 14845 ft | 267 kts | 240° |
| 2026-04-23 20:18 | -16.64871 | -68.47486 | 14935 ft | 281 kts | 240° |
| 2026-04-23 20:19 | -16.65872 | -68.49298 | 14971 ft | 291 kts | 240° |
| 2026-04-23 20:19 | -16.66893 | -68.51147 | 14994 ft | 296 kts | 240° |
| 2026-04-23 20:19 | -16.68025 | -68.52931 | 15093 ft | 295 kts | 229° |
| 2026-04-23 20:19 | -16.69475 | -68.54410 | 15600 ft | 285 kts | 220° |
| 2026-04-23 20:20 | -16.70989 | -68.55644 | 16714 ft | 267 kts | 217° |
| 2026-04-23 20:20 | -16.72442 | -68.56900 | 17107 ft | 281 kts | 223° |
| 2026-04-23 20:20 | -16.73911 | -68.58319 | 17412 ft | 295 kts | 224° |
| 2026-04-23 20:20 | -16.75473 | -68.59799 | 17675 ft | 312 kts | 223° |
| 2026-04-23 20:21 | -16.77116 | -68.61316 | 17937 ft | 327 kts | 222° |
| 2026-04-23 20:21 | -16.78897 | -68.62942 | 18201 ft | 344 kts | 222° |
| 2026-04-23 20:21 | -16.80744 | -68.64620 | 18452 ft | 360 kts | 222° |
| 2026-04-23 20:21 | -16.82679 | -68.66372 | 18676 ft | 376 kts | 221° |
| 2026-04-23 20:22 | -16.84697 | -68.68198 | 18868 ft | 392 kts | 221° |
| 2026-04-23 20:22 | -16.86791 | -68.70091 | 19149 ft | 403 kts | 221° |
| 2026-04-23 20:22 | -16.88923 | -68.72014 | 19592 ft | 407 kts | 221° |
| 2026-04-23 20:22 | -16.91081 | -68.73965 | 20072 ft | 411 kts | 221° |
| 2026-04-23 20:23 | -16.93252 | -68.75926 | 20545 ft | 413 kts | 221° |
| 2026-04-23 20:23 | -16.95438 | -68.77898 | 20974 ft | 417 kts | 221° |
| 2026-04-23 20:23 | -16.97640 | -68.79887 | 21408 ft | 420 kts | 221° |
| 2026-04-23 20:23 | -16.99856 | -68.81888 | 21829 ft | 422 kts | 221° |
| 2026-04-23 20:24 | -17.02083 | -68.83899 | 22237 ft | 425 kts | 221° |
| 2026-04-23 20:24 | -17.03566 | -68.85238 | 22593 ft | 423 kts | 221° |
| 2026-04-23 20:24 | -17.05769 | -68.87228 | 23411 ft | 414 kts | 221° |
| 2026-04-23 20:24 | -17.07932 | -68.89183 | 24218 ft | 406 kts | 221° |
| 2026-04-23 20:25 | -17.10726 | -68.91707 | 25306 ft | 396 kts | 221° |
| 2026-04-23 20:25 | -17.12121 | -68.92970 | 25869 ft | 391 kts | 221° |
| 2026-04-23 20:25 | -17.14162 | -68.94815 | 26642 ft | 385 kts | 221° |
| 2026-04-23 20:25 | -17.16187 | -68.96647 | 27233 ft | 385 kts | 221° |
| 2026-04-23 20:26 | -17.18208 | -68.98484 | 27718 ft | 386 kts | 223° |
| 2026-04-23 20:26 | -17.20098 | -69.00481 | 28180 ft | 388 kts | 227° |
| 2026-04-23 20:26 | -17.21938 | -69.02548 | 28622 ft | 390 kts | 227° |
| 2026-04-23 20:26 | -17.23788 | -69.04632 | 29039 ft | 392 kts | 227° |
| 2026-04-23 20:27 | -17.25649 | -69.06727 | 29448 ft | 394 kts | 227° |
| 2026-04-23 20:27 | -17.27520 | -69.08832 | 29857 ft | 396 kts | 227° |
| 2026-04-23 20:27 | -17.29401 | -69.10947 | 30235 ft | 398 kts | 227° |
| 2026-04-23 20:27 | -17.31295 | -69.13074 | 30601 ft | 400 kts | 227° |
| 2026-04-23 20:28 | -17.33200 | -69.15214 | 30950 ft | 404 kts | 227° |
| 2026-04-23 20:28 | -17.35122 | -69.17374 | 31276 ft | 406 kts | 228° |
| 2026-04-23 20:28 | -17.37030 | -69.19518 | 31596 ft | 409 kts | 228° |
| 2026-04-23 20:28 | -17.38980 | -69.21709 | 31898 ft | 412 kts | 229° |
| 2026-04-23 20:29 | -17.40939 | -69.23911 | 32194 ft | 414 kts | 228° |
| 2026-04-23 20:29 | -17.42911 | -69.26125 | 32497 ft | 417 kts | 229° |
| 2026-04-23 20:29 | -17.44897 | -69.28356 | 32789 ft | 420 kts | 229° |
| 2026-04-23 20:29 | -17.46892 | -69.30597 | 33064 ft | 423 kts | 229° |
| 2026-04-23 20:30 | -17.48905 | -69.32859 | 33344 ft | 425 kts | 229° |
| 2026-04-23 20:30 | -17.52966 | -69.37411 | 33861 ft | 430 kts | 229° |
| 2026-04-23 20:30 | -17.55011 | -69.39703 | 34110 ft | 432 kts | 229° |
| 2026-04-23 20:31 | -17.57085 | -69.42008 | 34224 ft | 438 kts | 226° |
| 2026-04-23 20:31 | -17.59504 | -69.44004 | 34260 ft | 447 kts | 213° |
| 2026-04-23 20:31 | -17.65199 | -69.46906 | 34245 ft | 456 kts | 206° |
| 2026-04-23 20:32 | -17.71001 | -69.49561 | 34238 ft | 460 kts | 206° |
| 2026-04-23 20:32 | -17.76892 | -69.52248 | 34188 ft | 463 kts | 205° |
| 2026-04-23 20:33 | -17.82829 | -69.54955 | 34145 ft | 467 kts | 205° |
| 2026-04-23 20:33 | -17.88810 | -69.57679 | 34127 ft | 469 kts | 205° |
| 2026-04-23 20:34 | -17.94806 | -69.60411 | 34117 ft | 469 kts | 205° |
| 2026-04-23 20:34 | -18.00815 | -69.63146 | 34111 ft | 472 kts | 205° |
| 2026-04-23 20:35 | -18.06846 | -69.65898 | 34089 ft | 472 kts | 206° |
| 2026-04-23 20:35 | -18.12877 | -69.68651 | 34065 ft | 472 kts | 205° |
| 2026-04-23 20:36 | -18.18906 | -69.71405 | 34057 ft | 472 kts | 205° |
| 2026-04-23 20:36 | -18.24924 | -69.74155 | 34058 ft | 471 kts | 205° |
| 2026-04-23 20:37 | -18.30943 | -69.76906 | 34050 ft | 471 kts | 205° |
| 2026-04-23 20:37 | -18.36958 | -69.79644 | 34048 ft | 471 kts | 204° |
| 2026-04-23 20:38 | -18.43095 | -69.82071 | 34067 ft | 472 kts | 202° |
| 2026-04-23 20:38 | -18.49263 | -69.84470 | 34066 ft | 473 kts | 202° |
| 2026-04-23 20:39 | -18.55444 | -69.86880 | 34060 ft | 473 kts | 202° |
| 2026-04-23 20:39 | -18.61570 | -69.89274 | 34058 ft | 472 kts | 202° |
| 2026-04-23 20:40 | -18.67718 | -69.91678 | 34060 ft | 471 kts | 202° |
| 2026-04-23 20:40 | -18.73902 | -69.94098 | 34053 ft | 470 kts | 203° |
| 2026-04-23 20:41 | -18.80037 | -69.96501 | 34059 ft | 470 kts | 203° |
| 2026-04-23 20:41 | -18.86168 | -69.98905 | 34065 ft | 470 kts | 202° |
| 2026-04-23 20:42 | -18.92256 | -70.01292 | 34065 ft | 470 kts | 203° |
| 2026-04-23 20:42 | -18.98394 | -70.03703 | 34066 ft | 470 kts | 203° |
| 2026-04-23 20:43 | -19.04530 | -70.06114 | 34062 ft | 470 kts | 203° |
| 2026-04-23 20:43 | -19.10665 | -70.08528 | 34090 ft | 470 kts | 203° |
| 2026-04-23 20:44 | -19.16802 | -70.10943 | 34069 ft | 471 kts | 203° |
| 2026-04-23 20:44 | -19.22980 | -70.13377 | 34071 ft | 470 kts | 203° |
| 2026-04-23 20:45 | -19.29102 | -70.15791 | 34068 ft | 469 kts | 203° |
| 2026-04-23 20:45 | -19.35221 | -70.18206 | 34067 ft | 469 kts | 204° |
| 2026-04-23 20:46 | -19.41352 | -70.20467 | 34061 ft | 472 kts | 197° |
| 2026-04-23 20:46 | -19.44647 | -70.21009 | 34063 ft | 476 kts | 186° |
| 2026-04-23 20:46 | -19.47963 | -70.21149 | 34076 ft | 478 kts | 184° |
| 2026-04-23 20:47 | -19.54629 | -70.21216 | 34061 ft | 479 kts | 183° |
| 2026-04-23 20:47 | -19.61247 | -70.21255 | 34062 ft | 478 kts | 183° |
| 2026-04-23 20:48 | -19.67888 | -70.21289 | 34054 ft | 476 kts | 183° |
| 2026-04-23 20:48 | -19.74515 | -70.21320 | 34048 ft | 476 kts | 183° |
| 2026-04-23 20:49 | -19.81141 | -70.21348 | 34044 ft | 476 kts | 183° |
| 2026-04-23 20:49 | -19.87764 | -70.21375 | 34044 ft | 476 kts | 183° |
| 2026-04-23 20:50 | -19.94387 | -70.21401 | 34035 ft | 476 kts | 183° |
| 2026-04-23 20:50 | -20.01009 | -70.21425 | 34036 ft | 476 kts | 183° |
| 2026-04-23 20:51 | -20.07634 | -70.21450 | 34033 ft | 476 kts | 183° |
| 2026-04-23 20:51 | -20.14262 | -70.21474 | 34029 ft | 476 kts | 183° |
| 2026-04-23 20:52 | -20.20890 | -70.21498 | 34035 ft | 476 kts | 183° |
| 2026-04-23 20:52 | -20.27510 | -70.21521 | 34035 ft | 476 kts | 183° |
| 2026-04-23 20:53 | -20.34129 | -70.21545 | 34023 ft | 476 kts | 183° |
| 2026-04-23 20:53 | -20.40751 | -70.21569 | 34020 ft | 476 kts | 183° |
| 2026-04-23 20:54 | -20.47376 | -70.21593 | 34022 ft | 475 kts | 183° |
| 2026-04-23 20:54 | -20.53994 | -70.21617 | 34025 ft | 476 kts | 184° |
| 2026-04-23 20:55 | -20.60614 | -70.21640 | 34021 ft | 475 kts | 184° |
| 2026-04-23 20:55 | -20.67236 | -70.21664 | 34025 ft | 476 kts | 184° |
| 2026-04-23 20:56 | -20.73864 | -70.21689 | 34017 ft | 476 kts | 184° |
| 2026-04-23 20:56 | -20.80483 | -70.21713 | 34026 ft | 476 kts | 184° |
| 2026-04-23 20:57 | -20.87108 | -70.21737 | 34016 ft | 476 kts | 184° |
| 2026-04-23 20:57 | -20.93730 | -70.21762 | 34023 ft | 476 kts | 184° |
| 2026-04-23 20:58 | -21.00357 | -70.21786 | 34019 ft | 476 kts | 185° |
| 2026-04-23 20:58 | -21.06983 | -70.21807 | 34025 ft | 476 kts | 185° |
| 2026-04-23 20:59 | -21.13606 | -70.21829 | 34024 ft | 476 kts | 185° |
| 2026-04-23 20:59 | -21.20232 | -70.21852 | 34020 ft | 476 kts | 185° |
| 2026-04-23 21:00 | -21.26859 | -70.21874 | 34026 ft | 476 kts | 185° |
| 2026-04-23 21:00 | -21.33478 | -70.21896 | 34025 ft | 476 kts | 185° |
| 2026-04-23 21:01 | -21.40104 | -70.21919 | 34030 ft | 476 kts | 185° |
| 2026-04-23 21:01 | -21.46724 | -70.21941 | 34025 ft | 476 kts | 186° |
| 2026-04-23 21:02 | -21.53346 | -70.21964 | 33982 ft | 477 kts | 186° |
| 2026-04-23 21:02 | -21.56687 | -70.21977 | 33365 ft | 481 kts | 186° |
| 2026-04-23 21:02 | -21.60023 | -70.21987 | 32784 ft | 478 kts | 186° |
| 2026-04-23 21:03 | -21.63344 | -70.21996 | 32216 ft | 476 kts | 186° |
| 2026-04-23 21:03 | -21.66655 | -70.22007 | 31640 ft | 474 kts | 186° |
| 2026-04-23 21:03 | -21.69939 | -70.22017 | 31077 ft | 471 kts | 186° |
| 2026-04-23 21:03 | -21.73206 | -70.22028 | 30514 ft | 468 kts | 186° |
| 2026-04-23 21:04 | -21.76453 | -70.22039 | 29956 ft | 465 kts | 186° |
| 2026-04-23 21:04 | -21.79677 | -70.22049 | 29402 ft | 461 kts | 186° |
| 2026-04-23 21:04 | -21.81794 | -70.22056 | 29037 ft | 459 kts | 186° |
| 2026-04-23 21:04 | -21.84977 | -70.22067 | 28486 ft | 456 kts | 185° |
| 2026-04-23 21:05 | -21.89152 | -70.22108 | 27776 ft | 448 kts | 189° |
| 2026-04-23 21:05 | -21.92224 | -70.22491 | 27264 ft | 443 kts | 193° |
| 2026-04-23 21:05 | -21.94279 | -70.22814 | 26892 ft | 441 kts | 193° |
| 2026-04-23 21:05 | -21.98293 | -70.23454 | 26186 ft | 438 kts | 193° |
| 2026-04-23 21:06 | -22.00325 | -70.23778 | 25834 ft | 437 kts | 193° |
| 2026-04-23 21:06 | -22.03326 | -70.24255 | 25311 ft | 434 kts | 193° |
| 2026-04-23 21:06 | -22.06305 | -70.24728 | 24793 ft | 432 kts | 193° |
| 2026-04-23 21:06 | -22.09270 | -70.25200 | 24276 ft | 430 kts | 193° |
| 2026-04-23 21:07 | -22.12220 | -70.25668 | 23764 ft | 428 kts | 193° |
| 2026-04-23 21:07 | -22.15156 | -70.26134 | 23245 ft | 425 kts | 193° |
| 2026-04-23 21:07 | -22.18077 | -70.26596 | 22747 ft | 423 kts | 192° |
| 2026-04-23 21:07 | -22.20984 | -70.27057 | 22242 ft | 421 kts | 192° |
| 2026-04-23 21:08 | -22.23874 | -70.27514 | 21740 ft | 418 kts | 192° |
| 2026-04-23 21:08 | -22.26745 | -70.27968 | 21241 ft | 416 kts | 192° |
| 2026-04-23 21:08 | -22.29563 | -70.28414 | 20753 ft | 414 kts | 192° |
| 2026-04-23 21:08 | -22.32408 | -70.28865 | 20257 ft | 412 kts | 192° |
| 2026-04-23 21:09 | -22.35239 | -70.29313 | 19766 ft | 410 kts | 191° |
| 2026-04-23 21:09 | -22.38055 | -70.29758 | 19276 ft | 408 kts | 191° |
| 2026-04-23 21:09 | -22.40853 | -70.30201 | 18789 ft | 405 kts | 191° |
| 2026-04-23 21:09 | -22.43635 | -70.30641 | 18307 ft | 403 kts | 191° |
| 2026-04-23 21:10 | -22.46399 | -70.31078 | 17823 ft | 400 kts | 191° |
| 2026-04-23 21:10 | -22.49145 | -70.31513 | 17334 ft | 398 kts | 191° |
| 2026-04-23 21:10 | -22.51868 | -70.31945 | 16847 ft | 394 kts | 191° |
| 2026-04-23 21:10 | -22.54574 | -70.32373 | 16389 ft | 391 kts | 190° |
| 2026-04-23 21:11 | -22.57256 | -70.32797 | 15910 ft | 388 kts | 190° |
| 2026-04-23 21:11 | -22.59913 | -70.33219 | 15450 ft | 384 kts | 190° |
| 2026-04-23 21:11 | -22.62535 | -70.33635 | 15000 ft | 378 kts | 190° |
| 2026-04-23 21:11 | -22.65070 | -70.34036 | 14550 ft | 358 kts | 190° |
| 2026-04-23 21:12 | -22.67470 | -70.34416 | 14125 ft | 339 kts | 189° |
| 2026-04-23 21:12 | -22.69745 | -70.34776 | 13741 ft | 322 kts | 189° |
| 2026-04-23 21:12 | -22.71918 | -70.35121 | 13361 ft | 310 kts | 190° |
| 2026-04-23 21:12 | -22.74024 | -70.35457 | 12994 ft | 302 kts | 189° |
| 2026-04-23 21:13 | -22.76080 | -70.35785 | 12634 ft | 296 kts | 189° |
| 2026-04-23 21:13 | -22.78099 | -70.36107 | 12281 ft | 290 kts | 189° |
| 2026-04-23 21:13 | -22.80088 | -70.36424 | 11936 ft | 287 kts | 189° |
| 2026-04-23 21:13 | -22.82065 | -70.36739 | 11593 ft | 287 kts | 189° |
| 2026-04-23 21:14 | -22.84042 | -70.37054 | 11249 ft | 287 kts | 189° |
| 2026-04-23 21:14 | -22.86014 | -70.37368 | 10909 ft | 288 kts | 189° |
| 2026-04-23 21:14 | -22.88018 | -70.37687 | 10558 ft | 293 kts | 189° |
| 2026-04-23 21:14 | -22.90032 | -70.37962 | 10206 ft | 291 kts | 187° |
| 2026-04-23 21:15 | -22.92033 | -70.38187 | 9859 ft | 287 kts | 187° |
| 2026-04-23 21:15 | -22.94016 | -70.38410 | 9521 ft | 285 kts | 187° |
| 2026-04-23 21:15 | -22.95977 | -70.38637 | 9182 ft | 282 kts | 187° |
| 2026-04-23 21:15 | -22.97919 | -70.38863 | 8833 ft | 279 kts | 187° |
| 2026-04-23 21:16 | -22.99839 | -70.39088 | 8513 ft | 276 kts | 187° |
| 2026-04-23 21:16 | -23.01741 | -70.39312 | 8182 ft | 273 kts | 187° |
| 2026-04-23 21:16 | -23.03623 | -70.39532 | 7860 ft | 272 kts | 187° |
| 2026-04-23 21:16 | -23.05496 | -70.39751 | 7535 ft | 270 kts | 187° |
| 2026-04-23 21:17 | -23.07361 | -70.39970 | 7213 ft | 269 kts | 187° |
| 2026-04-23 21:17 | -23.09210 | -70.40203 | 6895 ft | 267 kts | 188° |
| 2026-04-23 21:17 | -23.11058 | -70.40433 | 6576 ft | 266 kts | 187° |
| 2026-04-23 21:17 | -23.12895 | -70.40655 | 6256 ft | 265 kts | 187° |
| 2026-04-23 21:18 | -23.14723 | -70.40875 | 5932 ft | 264 kts | 187° |
| 2026-04-23 21:18 | -23.16539 | -70.41092 | 5624 ft | 262 kts | 187° |
| 2026-04-23 21:18 | -23.18324 | -70.41307 | 5315 ft | 261 kts | 188° |
| 2026-04-23 21:18 | -23.20121 | -70.41526 | 5004 ft | 259 kts | 187° |
| 2026-04-23 21:19 | -23.21906 | -70.41745 | 4695 ft | 258 kts | 188° |
| 2026-04-23 21:19 | -23.23680 | -70.41963 | 4385 ft | 253 kts | 187° |
| 2026-04-23 21:19 | -23.25406 | -70.42173 | 4086 ft | 239 kts | 187° |
| 2026-04-23 21:19 | -23.27023 | -70.42368 | 3797 ft | 228 kts | 187° |
| 2026-04-23 21:20 | -23.28567 | -70.42551 | 3539 ft | 220 kts | 188° |
| 2026-04-23 21:20 | -23.30076 | -70.42735 | 3306 ft | 215 kts | 188° |
| 2026-04-23 21:20 | -23.31535 | -70.42913 | 3122 ft | 210 kts | 188° |
| 2026-04-23 21:20 | -23.32966 | -70.43090 | 2799 ft | 205 kts | 189° |
| 2026-04-23 21:21 | -23.34374 | -70.43267 | 2494 ft | 203 kts | 188° |
| 2026-04-23 21:21 | -23.35761 | -70.43440 | 2185 ft | 195 kts | 188° |
| 2026-04-23 21:21 | -23.37052 | -70.43596 | 1900 ft | 178 kts | 188° |
| 2026-04-23 21:21 | -23.38225 | -70.43738 | 1636 ft | 160 kts | 188° |
| 2026-04-23 21:22 | -23.39302 | -70.43869 | 1383 ft | 151 kts | 188° |
| 2026-04-23 21:22 | -23.40333 | -70.43996 | 1148 ft | 148 kts | 188° |
| 2026-04-23 21:22 | -23.41345 | -70.44120 | 943 ft | 145 kts | 188° |
| 2026-04-23 21:22 | -23.42355 | -70.44255 | 664 ft | 148 kts | 188° |
| 2026-04-23 21:23 | -23.43372 | -70.44376 | 460 ft | 146 kts | 188° |
| 2026-04-23 21:23 | -23.44291 | -70.44487 | 414 ft | 95 kts | 186° |
| 2026-04-23 21:23 | -23.44811 | -70.44550 | 392 ft | 52 kts | 187° |
| 2026-04-23 21:23 | -23.45130 | -70.44589 | 379 ft | 28 kts | 186° |
| 2026-04-23 21:24 | -23.45211 | -70.44535 | 376 ft | 13 kts | 92° |
| 2026-04-23 21:24 | -23.45223 | -70.44443 | 375 ft | 12 kts | 89° |
| 2026-04-23 21:24 | -23.45172 | -70.44403 | 378 ft | 8 kts | 6° |
| 2026-04-23 21:24 | -23.45125 | -70.44397 | 380 ft | 6 kts | 6° |
| 2026-04-23 21:25 | -23.45087 | -70.44392 | 382 ft | 4 kts | 6° |
| 2026-04-23 21:25 | -23.45055 | -70.44388 | 383 ft | 6 kts | 7° |
| 2026-04-23 21:25 | -23.45004 | -70.44378 | 386 ft | 9 kts | 23° |
| 2026-04-23 21:25 | -23.44988 | -70.44303 | 387 ft | 13 kts | 85° |
| 2026-04-23 21:26 | -23.44929 | -70.44256 | 390 ft | 11 kts | 39° |
| 2026-04-23 21:26 | -23.44919 | -70.44179 | 391 ft | 8 kts | 94° |
| 2026-04-23 21:26 | -23.44919 | -70.44165 | 391 ft | 0 kts | 92° |
| 2026-04-23 21:49 | -23.44919 | -70.44168 | 391 ft | 2 kts | 91° |
| 2026-04-23 21:50 | -23.44919 | -70.44183 | 391 ft | 2 kts | 93° |
| 2026-04-23 21:50 | -23.44918 | -70.44203 | 391 ft | 3 kts | 94° |
| 2026-04-23 21:50 | -23.44916 | -70.44226 | 391 ft | 3 kts | 93° |
| 2026-04-23 21:50 | -23.44916 | -70.44244 | 391 ft | 2 kts | 70° |
| 2026-04-23 21:51 | -23.44922 | -70.44254 | 390 ft | 2 kts | 22° |
| 2026-04-23 21:51 | -23.44942 | -70.44262 | 390 ft | 2 kts | 19° |
| 2026-04-23 21:51 | -23.44953 | -70.44265 | 389 ft | 2 kts | 6° |
| 2026-04-23 21:51 | -23.44964 | -70.44266 | 389 ft | 2 kts | 6° |
| 2026-04-23 21:52 | -23.44966 | -70.44267 | 388 ft | 0 kts | 6° |
| 2026-04-23 21:54 | -23.44955 | -70.44265 | 388 ft | 3 kts | 6° |
| 2026-04-23 21:54 | -23.44897 | -70.44259 | 391 ft | 11 kts | 6° |
| 2026-04-23 21:54 | -23.44829 | -70.44259 | 394 ft | 9 kts | 347° |
| 2026-04-23 21:55 | -23.44773 | -70.44276 | 397 ft | 8 kts | 344° |
| 2026-04-23 21:55 | -23.44724 | -70.44292 | 395 ft | 7 kts | 345° |
| 2026-04-23 21:55 | -23.44680 | -70.44305 | 401 ft | 6 kts | 345° |
| 2026-04-23 21:55 | -23.44644 | -70.44315 | 402 ft | 6 kts | 345° |
| 2026-04-23 21:56 | -23.44600 | -70.44327 | 403 ft | 7 kts | 351° |
| 2026-04-23 21:56 | -23.44544 | -70.44327 | 407 ft | 9 kts | 9° |
| 2026-04-23 21:56 | -23.44476 | -70.44318 | 410 ft | 11 kts | 6° |
| 2026-04-23 21:56 | -23.44397 | -70.44308 | 411 ft | 12 kts | 7° |
| 2026-04-23 21:57 | -23.44307 | -70.44297 | 414 ft | 14 kts | 6° |
| 2026-04-23 21:57 | -23.44206 | -70.44284 | 419 ft | 15 kts | 6° |
| 2026-04-23 21:57 | -23.44096 | -70.44272 | 424 ft | 17 kts | 6° |
| 2026-04-23 21:57 | -23.43977 | -70.44257 | 428 ft | 17 kts | 6° |
| 2026-04-23 21:58 | -23.43870 | -70.44244 | 438 ft | 14 kts | 6° |
| 2026-04-23 21:58 | -23.43785 | -70.44233 | 442 ft | 11 kts | 6° |
| 2026-04-23 21:58 | -23.43715 | -70.44225 | 433 ft | 10 kts | 6° |
| 2026-04-23 21:58 | -23.43647 | -70.44216 | 448 ft | 10 kts | 7° |
| 2026-04-23 21:59 | -23.43583 | -70.44208 | 451 ft | 9 kts | 6° |
| 2026-04-23 21:59 | -23.43519 | -70.44201 | 454 ft | 9 kts | 5° |
| 2026-04-23 21:59 | -23.43459 | -70.44193 | 457 ft | 9 kts | 6° |
| 2026-04-23 22:00 | -23.43348 | -70.44213 | 462 ft | 9 kts | 323° |
| 2026-04-23 22:00 | -23.43298 | -70.44255 | 462 ft | 10 kts | 320° |
| 2026-04-23 22:00 | -23.43286 | -70.44323 | 461 ft | 12 kts | 231° |
| 2026-04-23 22:00 | -23.43308 | -70.44366 | 462 ft | 6 kts | 225° |
| 2026-04-23 22:01 | -23.43334 | -70.44373 | 461 ft | 0 kts | 184° |
| 2026-04-23 22:01 | -23.43339 | -70.44373 | 461 ft | 0 kts | 185° |
| 2026-04-23 22:01 | -23.43356 | -70.44375 | 460 ft | 4 kts | 185° |
| 2026-04-23 22:01 | -23.43486 | -70.44390 | 454 ft | 47 kts | 186° |
| 2026-04-23 22:02 | -23.44029 | -70.44456 | 423 ft | 108 kts | 186° |
| 2026-04-23 22:02 | -23.44946 | -70.44568 | 387 ft | 155 kts | 185° |
| 2026-04-23 22:02 | -23.46097 | -70.44710 | 635 ft | 171 kts | 189° |
| 2026-04-23 22:02 | -23.47279 | -70.44924 | 1253 ft | 169 kts | 194° |
| 2026-04-23 22:03 | -23.48351 | -70.45266 | 2067 ft | 153 kts | 203° |
| 2026-04-23 22:03 | -23.49348 | -70.45726 | 2449 ft | 167 kts | 191° |
| 2026-04-23 22:03 | -23.50510 | -70.45511 | 2867 ft | 179 kts | 159° |
| 2026-04-23 22:03 | -23.51701 | -70.44941 | 3192 ft | 194 kts | 161° |
| 2026-04-23 22:04 | -23.53034 | -70.44479 | 3525 ft | 209 kts | 167° |
| 2026-04-23 22:04 | -23.54509 | -70.44093 | 3975 ft | 225 kts | 169° |
| 2026-04-23 22:04 | -23.56101 | -70.43714 | 4457 ft | 242 kts | 170° |
| 2026-04-23 22:04 | -23.57800 | -70.43322 | 4929 ft | 257 kts | 170° |
| 2026-04-23 22:05 | -23.59575 | -70.42916 | 5587 ft | 263 kts | 169° |
| 2026-04-23 22:05 | -23.61386 | -70.42506 | 6310 ft | 268 kts | 170° |
| 2026-04-23 22:05 | -23.63222 | -70.42097 | 7047 ft | 271 kts | 170° |
| 2026-04-23 22:05 | -23.65086 | -70.41687 | 7767 ft | 275 kts | 170° |
| 2026-04-23 22:06 | -23.66974 | -70.41270 | 8491 ft | 278 kts | 170° |
| 2026-04-23 22:06 | -23.68882 | -70.40848 | 9186 ft | 282 kts | 170° |
| 2026-04-23 22:06 | -23.70813 | -70.40422 | 9861 ft | 285 kts | 170° |
| 2026-04-23 22:06 | -23.72772 | -70.39990 | 10562 ft | 289 kts | 169° |
| 2026-04-23 22:07 | -23.74752 | -70.39552 | 11251 ft | 292 kts | 170° |
| 2026-04-23 22:07 | -23.76752 | -70.39110 | 11940 ft | 295 kts | 169° |
| 2026-04-23 22:07 | -23.78772 | -70.38663 | 12627 ft | 298 kts | 170° |
| 2026-04-23 22:07 | -23.80836 | -70.38389 | 13288 ft | 301 kts | 179° |
| 2026-04-23 22:08 | -23.82941 | -70.38306 | 13940 ft | 305 kts | 180° |
| 2026-04-23 22:08 | -23.85080 | -70.38248 | 14583 ft | 310 kts | 181° |
| 2026-04-23 22:08 | -23.87253 | -70.38189 | 15235 ft | 315 kts | 181° |
| 2026-04-23 22:08 | -23.89457 | -70.38125 | 15886 ft | 319 kts | 181° |
| 2026-04-23 22:09 | -23.91694 | -70.38060 | 16540 ft | 324 kts | 181° |
| 2026-04-23 22:09 | -23.93964 | -70.37990 | 17168 ft | 329 kts | 181° |
| 2026-04-23 22:09 | -23.96269 | -70.37917 | 17752 ft | 334 kts | 181° |
| 2026-04-23 22:09 | -23.98606 | -70.37841 | 18376 ft | 338 kts | 181° |
| 2026-04-23 22:10 | -24.00970 | -70.37763 | 19007 ft | 342 kts | 182° |
| 2026-04-23 22:10 | -24.03358 | -70.37683 | 19648 ft | 345 kts | 182° |
| 2026-04-23 22:10 | -24.05764 | -70.37603 | 20287 ft | 348 kts | 182° |
| 2026-04-23 22:10 | -24.08196 | -70.37522 | 20911 ft | 351 kts | 182° |
| 2026-04-23 22:11 | -24.10648 | -70.37441 | 21511 ft | 354 kts | 183° |
| 2026-04-23 22:11 | -24.13121 | -70.37358 | 22093 ft | 357 kts | 183° |
| 2026-04-23 22:11 | -24.15614 | -70.37275 | 22650 ft | 360 kts | 184° |
| 2026-04-23 22:11 | -24.18132 | -70.37190 | 23189 ft | 363 kts | 184° |
| 2026-04-23 22:12 | -24.20666 | -70.37106 | 23738 ft | 366 kts | 184° |
| 2026-04-23 22:12 | -24.23220 | -70.37021 | 24284 ft | 369 kts | 184° |
| 2026-04-23 22:12 | -24.25794 | -70.36935 | 24826 ft | 371 kts | 185° |
| 2026-04-23 22:12 | -24.28383 | -70.36848 | 25355 ft | 373 kts | 185° |
| 2026-04-23 22:13 | -24.30990 | -70.36760 | 25895 ft | 375 kts | 185° |
| 2026-04-23 22:13 | -24.33607 | -70.36673 | 26430 ft | 377 kts | 185° |
| 2026-04-23 22:13 | -24.36238 | -70.36585 | 26936 ft | 379 kts | 186° |
| 2026-04-23 22:13 | -24.38881 | -70.36496 | 27451 ft | 381 kts | 186° |
| 2026-04-23 22:14 | -24.41532 | -70.36407 | 27950 ft | 382 kts | 187° |
| 2026-04-23 22:14 | -24.44189 | -70.36319 | 28412 ft | 384 kts | 187° |
| 2026-04-23 22:14 | -24.46866 | -70.36230 | 28890 ft | 385 kts | 187° |
| 2026-04-23 22:14 | -24.49556 | -70.36141 | 29333 ft | 387 kts | 188° |
| 2026-04-23 22:15 | -24.52250 | -70.36050 | 29780 ft | 388 kts | 187° |
| 2026-04-23 22:15 | -24.54924 | -70.35959 | 30172 ft | 390 kts | 188° |
| 2026-04-23 22:15 | -24.57642 | -70.35868 | 30577 ft | 392 kts | 188° |
| 2026-04-23 22:15 | -24.60384 | -70.35777 | 30921 ft | 395 kts | 188° |
| 2026-04-23 22:16 | -24.63133 | -70.35685 | 31279 ft | 396 kts | 188° |
| 2026-04-23 22:16 | -24.65897 | -70.35593 | 31619 ft | 398 kts | 189° |
| 2026-04-23 22:16 | -24.68680 | -70.35499 | 31923 ft | 401 kts | 188° |
| 2026-04-23 22:16 | -24.71477 | -70.35405 | 32256 ft | 404 kts | 189° |
| 2026-04-23 22:17 | -24.74293 | -70.35310 | 32577 ft | 406 kts | 188° |
| 2026-04-23 22:17 | -24.77126 | -70.35215 | 32879 ft | 408 kts | 188° |
| 2026-04-23 22:17 | -24.79975 | -70.35119 | 33078 ft | 413 kts | 189° |
| 2026-04-23 22:17 | -24.82880 | -70.35024 | 33075 ft | 421 kts | 188° |
| 2026-04-23 22:18 | -24.88855 | -70.34822 | 33111 ft | 430 kts | 188° |
| 2026-04-23 22:18 | -24.94841 | -70.34620 | 33119 ft | 436 kts | 188° |
| 2026-04-23 22:19 | -25.00944 | -70.34416 | 33112 ft | 442 kts | 188° |
| 2026-04-23 22:19 | -25.07123 | -70.34208 | 33136 ft | 446 kts | 188° |
| 2026-04-23 22:20 | -25.13362 | -70.33998 | 33138 ft | 450 kts | 188° |
| 2026-04-23 22:20 | -25.19657 | -70.33786 | 33139 ft | 453 kts | 188° |
| 2026-04-23 22:21 | -25.25976 | -70.33571 | 33113 ft | 456 kts | 189° |
| 2026-04-23 22:21 | -25.32336 | -70.33357 | 33146 ft | 458 kts | 189° |
| 2026-04-23 22:22 | -25.38734 | -70.33140 | 33124 ft | 461 kts | 189° |
| 2026-04-23 22:22 | -25.45160 | -70.32923 | 33110 ft | 463 kts | 189° |
| 2026-04-23 22:23 | -25.51619 | -70.32705 | 33135 ft | 465 kts | 189° |
| 2026-04-23 22:23 | -25.58094 | -70.32484 | 33134 ft | 466 kts | 189° |
| 2026-04-23 22:24 | -25.64568 | -70.32265 | 33125 ft | 465 kts | 189° |
| 2026-04-23 22:24 | -25.71035 | -70.32045 | 33129 ft | 464 kts | 189° |
| 2026-04-23 22:25 | -25.77483 | -70.31826 | 33122 ft | 464 kts | 189° |
| 2026-04-23 22:25 | -25.83934 | -70.31607 | 33114 ft | 463 kts | 189° |
| 2026-04-23 22:26 | -25.90379 | -70.31387 | 33119 ft | 464 kts | 189° |
| 2026-04-23 22:26 | -25.96837 | -70.31168 | 33114 ft | 464 kts | 189° |
| 2026-04-23 22:27 | -26.03292 | -70.30947 | 33107 ft | 464 kts | 189° |
| 2026-04-23 22:27 | -26.09665 | -70.31026 | 33118 ft | 447 kts | 196° |
| 2026-04-23 22:28 | -26.14800 | -70.31508 | 33126 ft | 446 kts | 196° |
| 2026-04-23 22:28 | -26.21041 | -70.32106 | 33122 ft | 448 kts | 196° |
| 2026-04-23 22:29 | -26.27279 | -70.32696 | 33106 ft | 451 kts | 196° |
| 2026-04-23 22:29 | -26.33549 | -70.33280 | 33116 ft | 453 kts | 196° |
| 2026-04-23 22:30 | -26.39852 | -70.33863 | 33123 ft | 454 kts | 196° |
| 2026-04-23 22:30 | -26.46157 | -70.34446 | 33084 ft | 455 kts | 197° |
| 2026-04-23 22:31 | -26.52437 | -70.35023 | 33087 ft | 455 kts | 196° |
| 2026-04-23 22:31 | -26.58751 | -70.35605 | 33119 ft | 455 kts | 197° |
| 2026-04-23 22:32 | -26.65067 | -70.36189 | 33131 ft | 456 kts | 197° |
| 2026-04-23 22:32 | -26.71393 | -70.36775 | 33118 ft | 455 kts | 197° |
| 2026-04-23 22:33 | -26.77699 | -70.37359 | 33117 ft | 455 kts | 197° |
| 2026-04-23 22:33 | -26.84007 | -70.37945 | 33130 ft | 455 kts | 197° |
| 2026-04-23 22:34 | -26.90275 | -70.38525 | 33116 ft | 455 kts | 197° |
| 2026-04-23 22:34 | -26.96589 | -70.39111 | 33107 ft | 455 kts | 197° |
| 2026-04-23 22:35 | -27.02895 | -70.39699 | 33071 ft | 454 kts | 198° |
| 2026-04-23 22:35 | -27.09183 | -70.40287 | 33086 ft | 453 kts | 198° |
| 2026-04-23 22:36 | -27.15474 | -70.40875 | 33103 ft | 454 kts | 198° |
| 2026-04-23 22:36 | -27.21779 | -70.41465 | 33084 ft | 454 kts | 198° |
| 2026-04-23 22:37 | -27.28078 | -70.42054 | 33079 ft | 454 kts | 198° |
| 2026-04-23 22:37 | -27.34374 | -70.42645 | 33056 ft | 454 kts | 198° |
| 2026-04-23 22:38 | -27.40670 | -70.43236 | 33105 ft | 455 kts | 198° |
| 2026-04-23 22:38 | -27.46991 | -70.43829 | 33103 ft | 457 kts | 198° |
| 2026-04-23 22:39 | -27.53322 | -70.44423 | 33098 ft | 456 kts | 199° |
| 2026-04-23 22:39 | -27.59642 | -70.45017 | 33094 ft | 455 kts | 199° |
| 2026-04-23 22:40 | -27.65947 | -70.45612 | 33097 ft | 454 kts | 199° |
| 2026-04-23 22:41 | -27.75400 | -70.46505 | 33095 ft | 455 kts | 199° |
| 2026-04-23 22:41 | -27.81666 | -70.47099 | 33110 ft | 455 kts | 199° |
| 2026-04-23 22:42 | -27.87973 | -70.47697 | 33104 ft | 455 kts | 199° |
| 2026-04-23 22:42 | -27.94270 | -70.48293 | 33103 ft | 454 kts | 199° |
| 2026-04-23 22:43 | -28.00565 | -70.48890 | 33098 ft | 454 kts | 199° |
| 2026-04-23 22:43 | -28.06868 | -70.49489 | 33092 ft | 454 kts | 199° |
| 2026-04-23 22:44 | -28.13174 | -70.50087 | 33095 ft | 455 kts | 199° |
| 2026-04-23 22:44 | -28.19483 | -70.50687 | 33086 ft | 455 kts | 199° |
| 2026-04-23 22:45 | -28.25799 | -70.51290 | 33097 ft | 456 kts | 199° |
| 2026-04-23 22:45 | -28.32126 | -70.51894 | 33095 ft | 456 kts | 198° |
| 2026-04-23 22:46 | -28.38455 | -70.52499 | 33094 ft | 456 kts | 199° |
| 2026-04-23 22:46 | -28.44782 | -70.53104 | 33070 ft | 456 kts | 198° |
| 2026-04-23 22:47 | -28.51075 | -70.53705 | 33072 ft | 453 kts | 198° |
| 2026-04-23 22:47 | -28.57366 | -70.54295 | 33095 ft | 454 kts | 198° |
| 2026-04-23 22:48 | -28.63688 | -70.54887 | 33120 ft | 458 kts | 198° |
| 2026-04-23 22:48 | -28.70056 | -70.55482 | 33114 ft | 460 kts | 198° |
| 2026-04-23 22:49 | -28.76440 | -70.56080 | 33075 ft | 461 kts | 198° |
| 2026-04-23 22:49 | -28.82835 | -70.56679 | 33052 ft | 461 kts | 198° |
| 2026-04-23 22:50 | -28.89219 | -70.57280 | 33093 ft | 459 kts | 198° |
| 2026-04-23 22:50 | -28.95602 | -70.57888 | 33087 ft | 461 kts | 197° |
| 2026-04-23 22:51 | -29.01945 | -70.58500 | 33064 ft | 460 kts | 198° |
| 2026-04-23 22:51 | -29.08318 | -70.59118 | 33082 ft | 459 kts | 198° |
| 2026-04-23 22:52 | -29.14698 | -70.59736 | 33119 ft | 461 kts | 197° |
| 2026-04-23 22:52 | -29.21106 | -70.60357 | 33063 ft | 462 kts | 197° |
| 2026-04-23 22:53 | -29.27507 | -70.60975 | 33069 ft | 461 kts | 197° |
| 2026-04-23 22:53 | -29.33908 | -70.61599 | 33104 ft | 463 kts | 197° |
| 2026-04-23 22:54 | -29.40346 | -70.62224 | 33074 ft | 465 kts | 197° |
| 2026-04-23 22:54 | -29.46786 | -70.62851 | 33085 ft | 465 kts | 197° |
| 2026-04-23 22:55 | -29.53241 | -70.63484 | 32936 ft | 467 kts | 197° |
| 2026-04-23 22:55 | -29.56463 | -70.63796 | 32701 ft | 463 kts | 197° |
| 2026-04-23 22:55 | -29.59659 | -70.64107 | 32503 ft | 460 kts | 197° |
| 2026-04-23 22:55 | -29.62848 | -70.64418 | 32251 ft | 459 kts | 196° |
| 2026-04-23 22:56 | -29.66032 | -70.64730 | 32001 ft | 458 kts | 196° |
| 2026-04-23 22:56 | -29.69206 | -70.65041 | 31744 ft | 458 kts | 196° |
| 2026-04-23 22:56 | -29.72383 | -70.65353 | 31492 ft | 458 kts | 196° |
| 2026-04-23 22:56 | -29.75571 | -70.65666 | 31271 ft | 459 kts | 196° |
| 2026-04-23 22:57 | -29.78771 | -70.65980 | 31049 ft | 460 kts | 196° |
| 2026-04-23 22:57 | -29.81949 | -70.66292 | 30821 ft | 461 kts | 195° |
| 2026-04-23 22:57 | -29.85151 | -70.66607 | 30598 ft | 462 kts | 195° |
| 2026-04-23 22:57 | -29.88359 | -70.66921 | 30375 ft | 463 kts | 195° |
| 2026-04-23 22:58 | -29.91566 | -70.67236 | 30144 ft | 462 kts | 195° |
| 2026-04-23 22:58 | -29.94773 | -70.67551 | 29912 ft | 463 kts | 194° |
| 2026-04-23 22:58 | -29.97987 | -70.67868 | 29694 ft | 463 kts | 194° |
| 2026-04-23 22:58 | -30.01202 | -70.68184 | 29446 ft | 465 kts | 194° |
| 2026-04-23 22:59 | -30.04427 | -70.68501 | 29218 ft | 466 kts | 193° |
| 2026-04-23 22:59 | -30.07650 | -70.68820 | 29115 ft | 465 kts | 193° |
| 2026-04-23 22:59 | -30.10886 | -70.69142 | 29118 ft | 468 kts | 193° |
| 2026-04-23 23:00 | -30.17367 | -70.69782 | 29090 ft | 470 kts | 193° |
| 2026-04-23 23:00 | -30.23892 | -70.70427 | 29091 ft | 471 kts | 193° |
| 2026-04-23 23:01 | -30.30436 | -70.71073 | 29087 ft | 472 kts | 193° |
| 2026-04-23 23:01 | -30.36989 | -70.71725 | 29112 ft | 473 kts | 192° |
| 2026-04-23 23:02 | -30.43543 | -70.72376 | 29116 ft | 473 kts | 193° |
| 2026-04-23 23:02 | -30.50096 | -70.73027 | 29113 ft | 473 kts | 193° |
| 2026-04-23 23:03 | -30.56643 | -70.73678 | 29117 ft | 472 kts | 192° |
| 2026-04-23 23:03 | -30.63191 | -70.74322 | 29103 ft | 471 kts | 192° |
| 2026-04-23 23:04 | -30.69718 | -70.74953 | 29071 ft | 470 kts | 191° |
| 2026-04-23 23:04 | -30.76229 | -70.75584 | 29090 ft | 469 kts | 192° |
| 2026-04-23 23:05 | -30.82747 | -70.76220 | 29125 ft | 471 kts | 192° |
| 2026-04-23 23:05 | -30.89295 | -70.76856 | 29135 ft | 471 kts | 192° |
| 2026-04-23 23:06 | -30.95818 | -70.77491 | 29124 ft | 469 kts | 192° |
| 2026-04-23 23:06 | -31.02327 | -70.78127 | 29069 ft | 468 kts | 192° |
| 2026-04-23 23:07 | -31.08815 | -70.78761 | 29113 ft | 468 kts | 192° |
| 2026-04-23 23:07 | -31.15326 | -70.79400 | 29119 ft | 470 kts | 192° |
| 2026-04-23 23:08 | -31.21843 | -70.80038 | 29165 ft | 470 kts | 191° |
| 2026-04-23 23:08 | -31.28303 | -70.80671 | 29129 ft | 468 kts | 192° |
| 2026-04-23 23:09 | -31.34834 | -70.81313 | 29150 ft | 468 kts | 191° |
| 2026-04-23 23:09 | -31.41288 | -70.81947 | 29156 ft | 467 kts | 191° |
| 2026-04-23 23:10 | -31.46713 | -70.82482 | 29113 ft | 467 kts | 191° |
| 2026-04-23 23:10 | -31.54233 | -70.83225 | 29100 ft | 467 kts | 191° |
| 2026-04-23 23:11 | -31.60707 | -70.83866 | 29118 ft | 467 kts | 191° |
| 2026-04-23 23:11 | -31.67185 | -70.84507 | 29115 ft | 467 kts | 191° |
| 2026-04-23 23:12 | -31.72565 | -70.85042 | 29123 ft | 467 kts | 191° |
| 2026-04-23 23:12 | -31.79104 | -70.85178 | 29152 ft | 474 kts | 184° |
| 2026-04-23 23:12 | -31.82416 | -70.85052 | 28685 ft | 477 kts | 184° |
| 2026-04-23 23:13 | -31.85714 | -70.84926 | 28099 ft | 472 kts | 184° |
| 2026-04-23 23:13 | -31.88980 | -70.84808 | 27536 ft | 467 kts | 184° |
| 2026-04-23 23:13 | -31.92215 | -70.84692 | 26980 ft | 463 kts | 184° |
| 2026-04-23 23:13 | -31.95433 | -70.84579 | 26434 ft | 463 kts | 183° |
| 2026-04-23 23:14 | -31.98656 | -70.84466 | 25871 ft | 464 kts | 183° |
| 2026-04-23 23:14 | -32.01885 | -70.84352 | 25326 ft | 464 kts | 183° |
| 2026-04-23 23:14 | -32.05095 | -70.84236 | 24757 ft | 459 kts | 182° |
| 2026-04-23 23:14 | -32.08271 | -70.84121 | 24200 ft | 454 kts | 182° |
| 2026-04-23 23:15 | -32.11408 | -70.84009 | 23674 ft | 448 kts | 182° |
| 2026-04-23 23:15 | -32.14513 | -70.83897 | 23135 ft | 443 kts | 182° |
| 2026-04-23 23:15 | -32.17563 | -70.83786 | 22605 ft | 433 kts | 182° |
| 2026-04-23 23:15 | -32.20536 | -70.83680 | 22097 ft | 423 kts | 182° |
| 2026-04-23 23:16 | -32.23447 | -70.83576 | 21619 ft | 414 kts | 182° |
| 2026-04-23 23:16 | -32.26297 | -70.83474 | 21119 ft | 405 kts | 182° |
| 2026-04-23 23:16 | -32.29090 | -70.83374 | 20625 ft | 398 kts | 182° |
| 2026-04-23 23:16 | -32.31832 | -70.83275 | 20152 ft | 390 kts | 182° |
| 2026-04-23 23:17 | -32.34517 | -70.83178 | 19701 ft | 383 kts | 182° |
| 2026-04-23 23:17 | -32.37159 | -70.83084 | 19252 ft | 378 kts | 181° |
| 2026-04-23 23:17 | -32.39772 | -70.82992 | 18804 ft | 374 kts | 181° |
| 2026-04-23 23:17 | -32.42360 | -70.82901 | 18373 ft | 370 kts | 181° |
| 2026-04-23 23:18 | -32.44927 | -70.82809 | 17936 ft | 367 kts | 181° |
| 2026-04-23 23:18 | -32.47463 | -70.82718 | 17485 ft | 362 kts | 181° |
| 2026-04-23 23:18 | -32.49957 | -70.82628 | 17049 ft | 355 kts | 181° |
| 2026-04-23 23:18 | -32.52404 | -70.82538 | 16638 ft | 349 kts | 181° |
| 2026-04-23 23:19 | -32.54805 | -70.82450 | 16232 ft | 342 kts | 181° |
| 2026-04-23 23:19 | -32.57163 | -70.82367 | 15837 ft | 336 kts | 181° |
| 2026-04-23 23:19 | -32.59481 | -70.82284 | 15427 ft | 331 kts | 181° |
| 2026-04-23 23:19 | -32.61763 | -70.82202 | 15036 ft | 325 kts | 181° |
| 2026-04-23 23:20 | -32.63967 | -70.82123 | 14672 ft | 319 kts | 181° |
| 2026-04-23 23:20 | -32.66167 | -70.82042 | 14315 ft | 314 kts | 181° |
| 2026-04-23 23:20 | -32.68364 | -70.81962 | 13921 ft | 309 kts | 181° |
| 2026-04-23 23:20 | -32.70468 | -70.81887 | 13530 ft | 304 kts | 181° |
| 2026-04-23 23:21 | -32.72592 | -70.81809 | 13145 ft | 298 kts | 181° |
| 2026-04-23 23:21 | -32.74619 | -70.81736 | 12786 ft | 293 kts | 181° |
| 2026-04-23 23:21 | -32.76670 | -70.81662 | 12447 ft | 289 kts | 181° |
| 2026-04-23 23:21 | -32.78648 | -70.81591 | 12111 ft | 288 kts | 181° |
| 2026-04-23 23:22 | -32.80643 | -70.81519 | 11783 ft | 286 kts | 181° |
| 2026-04-23 23:22 | -32.82630 | -70.81447 | 11455 ft | 285 kts | 180° |
| 2026-04-23 23:22 | -32.84533 | -70.81378 | 11129 ft | 284 kts | 180° |
| 2026-04-23 23:22 | -32.86499 | -70.81307 | 10779 ft | 281 kts | 180° |
| 2026-04-23 23:23 | -32.88445 | -70.81236 | 10433 ft | 279 kts | 179° |
| 2026-04-23 23:23 | -32.90373 | -70.81166 | 10103 ft | 277 kts | 179° |
| 2026-04-23 23:23 | -32.92292 | -70.81156 | 9797 ft | 273 kts | 185° |
| 2026-04-23 23:23 | -32.94183 | -70.81390 | 9455 ft | 273 kts | 188° |
| 2026-04-23 23:24 | -32.96056 | -70.81680 | 9118 ft | 271 kts | 188° |
| 2026-04-23 23:24 | -32.97917 | -70.81973 | 8787 ft | 269 kts | 187° |
| 2026-04-23 23:24 | -32.99769 | -70.82263 | 8464 ft | 268 kts | 186° |
| 2026-04-23 23:24 | -33.01623 | -70.82333 | 8174 ft | 266 kts | 179° |
| 2026-04-23 23:25 | -33.03475 | -70.82248 | 7837 ft | 266 kts | 177° |
| 2026-04-23 23:25 | -33.05315 | -70.82140 | 7505 ft | 264 kts | 177° |
| 2026-04-23 23:25 | -33.07136 | -70.82026 | 7199 ft | 262 kts | 177° |
| 2026-04-23 23:25 | -33.08953 | -70.81918 | 6885 ft | 260 kts | 177° |
| 2026-04-23 23:26 | -33.10753 | -70.81815 | 6574 ft | 259 kts | 177° |
| 2026-04-23 23:26 | -33.12547 | -70.81713 | 6262 ft | 258 kts | 177° |
| 2026-04-23 23:26 | -33.14336 | -70.81611 | 5950 ft | 256 kts | 178° |
| 2026-04-23 23:26 | -33.16118 | -70.81509 | 5650 ft | 256 kts | 178° |
| 2026-04-23 23:27 | -33.17889 | -70.81406 | 5341 ft | 255 kts | 177° |
| 2026-04-23 23:27 | -33.19655 | -70.81306 | 5028 ft | 253 kts | 176° |
| 2026-04-23 23:27 | -33.21415 | -70.81212 | 4720 ft | 248 kts | 178° |
| 2026-04-23 23:27 | -33.23008 | -70.81130 | 4441 ft | 213 kts | 178° |
| 2026-04-23 23:28 | -33.24425 | -70.81055 | 4070 ft | 195 kts | 177° |
| 2026-04-23 23:28 | -33.25742 | -70.80985 | 3795 ft | 186 kts | 178° |
| 2026-04-23 23:28 | -33.27018 | -70.80916 | 3546 ft | 181 kts | 178° |
| 2026-04-23 23:28 | -33.28250 | -70.80850 | 3313 ft | 174 kts | 178° |
| 2026-04-23 23:29 | -33.29431 | -70.80787 | 3089 ft | 167 kts | 178° |
| 2026-04-23 23:29 | -33.30586 | -70.80725 | 2863 ft | 165 kts | 179° |
| 2026-04-23 23:29 | -33.31731 | -70.80664 | 2644 ft | 163 kts | 179° |
| 2026-04-23 23:29 | -33.32854 | -70.80603 | 2422 ft | 160 kts | 178° |
| 2026-04-23 23:30 | -33.33952 | -70.80544 | 2215 ft | 157 kts | 178° |
| 2026-04-23 23:30 | -33.35023 | -70.80488 | 2009 ft | 155 kts | 177° |
| 2026-04-23 23:30 | -33.36098 | -70.80430 | 1801 ft | 154 kts | 177° |
| 2026-04-23 23:30 | -33.37169 | -70.80372 | 1608 ft | 154 kts | 177° |
| 2026-04-23 23:31 | -33.38185 | -70.80317 | 1572 ft | 126 kts | 178° |
| 2026-04-23 23:31 | -33.38879 | -70.80278 | 1574 ft | 74 kts | 177° |
| 2026-04-23 23:31 | -33.39255 | -70.80241 | 1572 ft | 36 kts | 162° |
| 2026-04-23 23:31 | -33.39379 | -70.80160 | 1570 ft | 6 kts | 149° |
| 2026-04-23 23:32 | -33.39416 | -70.80135 | 1568 ft | 17 kts | 151° |
| 2026-04-23 23:32 | -33.39513 | -70.80040 | 1566 ft | 18 kts | 122° |
| 2026-04-23 23:32 | -33.39530 | -70.79904 | 1565 ft | 15 kts | 91° |
| 2026-04-23 23:32 | -33.39525 | -70.79806 | 1565 ft | 10 kts | 88° |
| 2026-04-23 23:33 | -33.39523 | -70.79727 | 1565 ft | 9 kts | 93° |
| 2026-04-23 23:33 | -33.39569 | -70.79697 | 1564 ft | 8 kts | 178° |
| 2026-04-23 23:33 | -33.39605 | -70.79696 | 1565 ft | 0 kts | 178° |